createdAt,value
2023-03-06T00:01:17.743Z,14.00
2023-03-06T00:11:22.733Z,12.35
2023-03-06T00:16:26.322Z,13.32
2023-03-06T00:21:34.500Z,13.23
2023-03-06T00:26:37.569Z,12.82
2023-03-06T00:31:47.270Z,10.40
2023-03-06T00:36:55.118Z,11.88
2023-03-06T00:41:58.096Z,12.93
2023-03-06T00:47:00.772Z,12.48
2023-03-06T00:52:04.064Z,14.73
2023-03-06T00:57:12.447Z,14.93
2023-03-06T01:02:15.056Z,16.02
2023-03-06T01:07:17.715Z,17.08
2023-03-06T01:12:22.794Z,17.08
2023-03-06T01:17:26.825Z,16.08
2023-03-06T01:22:29.362Z,18.00
2023-03-06T01:27:31.913Z,17.20
2023-03-06T01:32:34.853Z,17.85
2023-03-06T01:37:38.242Z,16.23
2023-03-06T01:42:48.672Z,17.33
2023-03-06T01:47:51.265Z,18.25
2023-03-06T01:52:58.743Z,17.10
2023-03-06T01:58:07.170Z,16.83
2023-03-06T02:03:14.418Z,17.35
2023-03-06T02:08:19.675Z,17.83
2023-03-06T02:13:22.293Z,17.85
2023-03-06T02:18:28.993Z,17.25
2023-03-06T02:23:54.091Z,18.27
2023-03-06T02:28:58.719Z,17.33
2023-03-06T02:34:05.332Z,17.25
2023-03-06T02:39:09.488Z,16.10
2023-03-06T02:44:13.347Z,16.30
2023-03-06T02:49:15.991Z,16.50
2023-03-06T02:54:18.745Z,16.10
2023-03-06T02:59:21.549Z,15.68
2023-03-06T03:04:24.225Z,19.98
2023-03-06T03:09:27.200Z,21.40
2023-03-06T03:14:30.590Z,19.55
2023-03-06T03:19:33.375Z,19.23
2023-03-06T03:24:36.082Z,22.00
2023-03-06T03:29:39.567Z,19.70
2023-03-06T03:34:42.103Z,21.05
2023-03-06T03:39:44.810Z,25.17
2023-03-06T03:44:48.393Z,23.90
2023-03-06T03:49:52.757Z,25.90
2023-03-06T03:54:57.389Z,26.27
2023-03-06T04:00:01.210Z,29.23
2023-03-06T04:05:34.180Z,22.73
2023-03-06T04:10:42.250Z,22.98
2023-03-06T04:15:51.434Z,22.83
2023-03-06T04:21:00.416Z,18.40
2023-03-06T04:26:28.630Z,18.25
2023-03-06T04:31:31.686Z,18.05
2023-03-06T04:36:37.945Z,14.85
2023-03-06T04:41:46.755Z,18.23
2023-03-06T04:47:12.682Z,16.88
2023-03-06T04:52:15.281Z,15.90
2023-03-06T04:57:18.724Z,16.50
2023-03-06T05:02:40.637Z,14.93
2023-03-06T05:07:54.085Z,18.77
2023-03-06T05:18:45.255Z,18.05
2023-03-06T05:23:59.212Z,16.30
2023-03-06T05:29:01.947Z,16.90
2023-03-06T05:34:04.807Z,14.45
2023-03-06T05:39:07.548Z,15.13
2023-03-06T05:44:14.362Z,13.77
2023-03-06T05:49:17.675Z,14.63
2023-03-06T05:54:27.599Z,15.13
2023-03-06T05:59:31.866Z,13.00
2023-03-06T06:04:35.707Z,14.48
2023-03-06T06:09:38.355Z,16.95
2023-03-06T06:14:41.012Z,15.45
2023-03-06T06:19:43.547Z,16.77
2023-03-06T06:24:46.189Z,17.05
2023-03-06T06:29:52.768Z,17.20
2023-03-06T06:34:58.690Z,16.55
2023-03-06T06:40:01.529Z,18.05
2023-03-06T06:45:06.921Z,16.50
2023-03-06T06:50:13.971Z,16.52
2023-03-06T06:55:16.941Z,17.55
2023-03-06T07:00:20.307Z,16.02
2023-03-06T07:05:22.875Z,16.73
2023-03-06T07:10:26.360Z,16.73
2023-03-06T07:15:31.914Z,16.90
2023-03-06T07:20:37.488Z,14.95
2023-03-06T07:25:41.306Z,13.43
2023-03-06T07:30:51.452Z,14.48
2023-03-06T07:35:58.065Z,13.95
2023-03-06T07:41:00.981Z,14.32
2023-03-06T07:46:13.621Z,14.60
2023-03-06T07:51:22.368Z,17.58
2023-03-06T07:56:37.666Z,18.13
2023-03-06T08:01:40.484Z,16.42
2023-03-06T08:06:43.042Z,16.52
2023-03-06T08:11:46.300Z,16.73
2023-03-06T08:16:50.895Z,18.63
2023-03-06T08:21:53.586Z,18.73
2023-03-06T08:26:57.292Z,17.65
2023-03-06T08:32:19.745Z,23.25
2023-03-06T08:37:26.293Z,24.48
2023-03-06T08:42:28.935Z,20.92
2023-03-06T08:47:31.605Z,19.02
2023-03-06T08:52:40.498Z,18.13
2023-03-06T08:57:43.142Z,22.52
2023-03-06T09:02:49.012Z,20.38
2023-03-06T09:07:52.041Z,17.90
2023-03-06T09:12:56.124Z,18.38
2023-03-06T09:17:59.357Z,16.98
2023-03-06T09:23:14.478Z,17.85
2023-03-06T09:28:24.196Z,19.73
2023-03-06T09:33:28.889Z,18.13
2023-03-06T09:38:32.169Z,22.05
2023-03-06T09:43:44.964Z,18.33
2023-03-06T09:49:14.477Z,18.83
2023-03-06T09:54:20.470Z,14.15
2023-03-06T09:59:27.707Z,14.05
2023-03-06T10:04:50.496Z,11.90
2023-03-06T10:10:04.907Z,14.50
2023-03-06T10:15:27.156Z,12.10
2023-03-06T10:21:19.305Z,11.77
2023-03-06T10:27:11.637Z,11.50
2023-03-06T10:32:47.530Z,10.57
2023-03-06T10:37:51.190Z,10.57
2023-03-06T10:43:05.071Z,10.43
2023-03-06T10:48:20.494Z,9.52
2023-03-06T10:53:31.908Z,10.23
2023-03-06T10:58:37.799Z,9.15
2023-03-06T11:03:41.602Z,8.32
2023-03-06T11:08:45.574Z,10.93
2023-03-06T11:14:01.351Z,9.32
2023-03-06T11:19:07.572Z,9.80
2023-03-06T11:24:27.353Z,9.25
2023-03-06T11:29:30.539Z,9.85
2023-03-06T11:34:50.646Z,9.88
2023-03-06T11:39:59.735Z,8.43
2023-03-06T11:45:13.724Z,11.10
2023-03-06T11:50:45.691Z,9.18
2023-03-06T11:56:10.665Z,6.70
2023-03-06T12:01:37.126Z,8.25
2023-03-06T12:06:46.401Z,6.32
2023-03-06T12:12:41.466Z,6.80
2023-03-06T12:23:50.033Z,6.47
2023-03-06T12:29:12.029Z,3.70
2023-03-06T12:34:34.126Z,5.00
2023-03-06T12:40:16.387Z,3.03
2023-03-06T12:45:39.951Z,3.67
2023-03-06T12:50:46.502Z,3.10
2023-03-06T12:55:53.730Z,3.17
2023-03-06T13:01:20.065Z,3.08
2023-03-06T13:06:45.050Z,2.15
2023-03-06T13:12:48.258Z,2.17
2023-03-06T13:17:54.943Z,2.25
2023-03-06T13:22:58.764Z,3.22
2023-03-06T13:28:05.297Z,5.68
2023-03-06T13:33:42.572Z,6.25
2023-03-06T13:38:45.145Z,4.03
2023-03-06T13:43:49.053Z,2.13
2023-03-06T13:49:09.866Z,2.78
2023-03-06T13:54:22.339Z,3.30
2023-03-06T13:59:40.137Z,4.13
2023-03-06T14:05:03.094Z,5.93
2023-03-06T14:10:14.701Z,7.70
2023-03-06T14:15:41.520Z,5.88
2023-03-06T14:20:45.600Z,3.72
2023-03-06T14:26:02.935Z,2.70
2023-03-06T14:31:07.432Z,2.40
2023-03-06T14:36:20.263Z,2.10
2023-03-06T14:41:35.583Z,2.63
2023-03-06T14:46:39.574Z,2.72
2023-03-06T14:51:45.939Z,2.67
2023-03-06T14:56:54.712Z,2.20
2023-03-06T15:02:05.140Z,2.20
2023-03-06T15:07:12.930Z,2.25
2023-03-06T15:12:21.602Z,1.65
2023-03-06T15:17:29.018Z,2.08
2023-03-06T15:22:41.694Z,1.92
2023-03-06T15:28:28.795Z,1.98
2023-03-06T15:33:31.520Z,1.90
2023-03-06T15:44:22.799Z,2.03
2023-03-06T15:49:40.699Z,2.28
2023-03-06T15:55:05.139Z,2.10
2023-03-06T16:00:38.680Z,1.95
2023-03-06T16:05:42.958Z,2.05
2023-03-06T16:10:48.094Z,2.40
2023-03-06T16:16:04.447Z,2.00
2023-03-06T16:21:12.305Z,2.20
2023-03-06T16:26:33.145Z,1.52
2023-03-06T16:31:49.111Z,2.28
2023-03-06T16:37:18.750Z,1.95
2023-03-06T16:48:31.101Z,1.52
2023-03-06T16:53:39.552Z,2.28
2023-03-06T16:58:43.220Z,1.33
2023-03-06T17:03:46.367Z,1.85
2023-03-06T17:08:50.308Z,2.13
2023-03-06T17:13:56.706Z,1.85
2023-03-06T17:19:00.151Z,1.85
2023-03-06T17:24:08.828Z,1.95
2023-03-06T17:29:12.321Z,2.53
2023-03-06T17:34:14.852Z,2.22
2023-03-06T17:39:17.356Z,2.30
2023-03-06T17:44:20.424Z,2.35
2023-03-06T17:49:25.402Z,2.00
2023-03-06T17:54:30.188Z,1.80
2023-03-06T17:59:34.628Z,2.05
2023-03-06T18:04:37.833Z,1.88
2023-03-06T18:09:43.130Z,2.38
2023-03-06T18:14:45.778Z,2.05
2023-03-06T18:19:48.337Z,2.00
2023-03-06T18:24:51.667Z,3.03
2023-03-06T18:29:55.795Z,2.05
2023-03-06T18:34:58.605Z,2.30
2023-03-06T18:40:01.253Z,2.13
2023-03-06T18:45:05.706Z,2.35
2023-03-06T18:50:08.722Z,2.90
2023-03-06T18:55:11.374Z,2.53
2023-03-06T19:00:15.669Z,2.45
2023-03-06T19:05:18.469Z,2.22
2023-03-06T19:10:21.308Z,1.95
2023-03-06T19:15:23.826Z,1.75
2023-03-06T19:20:27.136Z,1.80
2023-03-06T19:25:29.650Z,1.63
2023-03-06T19:30:33.704Z,1.73
2023-03-06T19:35:36.522Z,1.88
2023-03-06T19:40:39.107Z,1.75
2023-03-06T19:45:45.067Z,1.60
2023-03-06T19:50:47.912Z,1.75
2023-03-06T19:55:50.487Z,1.80
2023-03-06T20:00:52.990Z,1.52
2023-03-06T20:05:55.437Z,1.45
2023-03-06T20:10:57.959Z,1.83
2023-03-06T20:16:03.490Z,1.55
2023-03-06T20:21:06.217Z,2.25
2023-03-06T20:26:12.233Z,1.80
2023-03-06T20:36:29.025Z,1.88
2023-03-06T20:41:32.637Z,1.98
2023-03-06T20:46:35.829Z,1.65
2023-03-06T20:51:39.936Z,1.48
2023-03-06T20:56:46.200Z,1.70
2023-03-06T21:01:49.379Z,1.80
2023-03-06T21:06:53.958Z,1.52
2023-03-06T21:11:56.994Z,1.60
2023-03-06T21:17:01.410Z,1.83
2023-03-06T21:22:04.091Z,1.73
2023-03-06T21:27:07.574Z,2.35
2023-03-06T21:32:10.018Z,1.95
2023-03-06T21:37:12.595Z,1.88
2023-03-06T21:42:15.134Z,2.05
2023-03-06T21:47:17.701Z,2.05
2023-03-06T21:52:20.207Z,1.80
2023-03-06T21:57:22.689Z,2.72
2023-03-06T22:02:25.354Z,2.20
2023-03-06T22:07:28.616Z,2.42
2023-03-06T22:12:31.224Z,1.95
2023-03-06T22:17:33.844Z,1.85
2023-03-06T22:22:36.385Z,2.15
2023-03-06T22:27:38.946Z,2.13
2023-03-06T22:32:41.480Z,2.08
2023-03-06T22:37:44.118Z,2.92
2023-03-06T22:42:46.629Z,2.95
2023-03-06T22:47:49.132Z,2.30
2023-03-06T22:52:51.698Z,1.98
2023-03-06T22:57:54.408Z,2.22
2023-03-06T23:02:56.964Z,2.35
2023-03-06T23:07:59.538Z,1.90
2023-03-06T23:13:01.945Z,2.05
2023-03-06T23:18:23.007Z,2.13
2023-03-06T23:23:48.685Z,1.83
2023-03-06T23:28:51.938Z,1.67
2023-03-06T23:33:56.748Z,1.80
2023-03-06T23:38:59.342Z,2.20
2023-03-06T23:44:03.364Z,2.00
2023-03-06T23:49:07.515Z,2.20
2023-03-06T23:54:10.563Z,1.83
2023-03-06T23:59:13.189Z,1.80
